Airfield :
LOGIN :

Register | Disclaimer

   EN    FR    IT 

 










Legend :    VFR   Marginal VFR   IFR   Intensive IFR   Very Intensive IFR
Visi :
Ceiling :
>= 8 km
>= 3000ft
5 to 8 km
1000 to 3000 ft
1500m to 5 km
500 to 1000 ft
800 to 1500m
200 to 500 ft
< 800m
< 200 ft
Symbols :   Thunderstorms  Fog  Heavy snow  Heavy precipitations  Wind > 20 kt
SIGMETs :     Misc.  Thunderstorms  Icing  Turbulence  Mountain Waves  Volcanic Ashes






- Airport Elevation : 59 ft
- IATA code : TSF


LIPH - Treviso

CURRENT METAR :
  • 141420Z 06007KT 9999 SCT060 14/06 Q1008

EXPIRED METARs :
  • 141350Z 07008KT CAVOK 14/05 Q1008
  • 141320Z 05009KT CAVOK 14/05 Q1008
  • 141250Z 04009KT 360V070 CAVOK 14/05 Q1008
  • 141220Z 05007KT CAVOK 14/06 Q1008
  • 141150Z 04007KT 360V060 CAVOK 14/06 Q1009

TAF TAF LIPH
Valid from the 14 at 12:00 until the 15 at 12:00 UTC


141100Z 1412/1512 03010KT 8000 SCT020
BECMG 1422/1424 4000 RA BKN010
TEMPO 1506/1512 3000 TSRA



MET'MAP, your aeronautical weather chart ! - Copyright ORBIFLY December 2007 - Disclaimer

ORBIFLY MET'MAP TEAM :

Programming & Development : Alexandra Zaïnal
Concept & Development : Baudouin d'Aumeries
Co-Development & Prog : Marc-Olivier Méhu
Technical & hardware support : Manuel Goepfert

Contact : metmap@orbifly.com




SOURCES & CREDITS :

   NOAA